sensor_id;sensor_type;location;lat;lon;timestamp;temperature;humidity
25718;DHT22;13574;52.040;5.692;2022-08-19T00:01:08;24.00;99.90
25718;DHT22;13574;52.040;5.692;2022-08-19T00:03:34;23.80;99.90
25718;DHT22;13574;52.040;5.692;2022-08-19T00:05:59;23.70;99.90
25718;DHT22;13574;52.040;5.692;2022-08-19T00:08:25;23.70;99.90
25718;DHT22;13574;52.040;5.692;2022-08-19T00:10:51;23.70;99.90
25718;DHT22;13574;52.040;5.692;2022-08-19T00:13:17;23.70;99.90
25718;DHT22;13574;52.040;5.692;2022-08-19T00:15:43;23.50;99.90
25718;DHT22;13574;52.040;5.692;2022-08-19T00:18:10;23.50;99.90
25718;DHT22;13574;52.040;5.692;2022-08-19T00:20:36;23.40;99.90
25718;DHT22;13574;52.040;5.692;2022-08-19T00:23:03;23.20;99.90
25718;DHT22;13574;52.040;5.692;2022-08-19T00:25:29;23.30;99.90
25718;DHT22;13574;52.040;5.692;2022-08-19T00:27:54;23.30;99.90
25718;DHT22;13574;52.040;5.692;2022-08-19T00:30:21;23.30;99.90
25718;DHT22;13574;52.040;5.692;2022-08-19T00:32:46;23.30;99.90
25718;DHT22;13574;52.040;5.692;2022-08-19T00:35:12;23.30;99.90
25718;DHT22;13574;52.040;5.692;2022-08-19T00:37:38;23.10;99.90
25718;DHT22;13574;52.040;5.692;2022-08-19T00:40:09;23.00;99.90
25718;DHT22;13574;52.040;5.692;2022-08-19T00:42:35;23.10;99.90
25718;DHT22;13574;52.040;5.692;2022-08-19T00:45:02;23.00;99.90
25718;DHT22;13574;52.040;5.692;2022-08-19T00:47:33;23.00;99.90
25718;DHT22;13574;52.040;5.692;2022-08-19T00:49:59;23.00;99.90
25718;DHT22;13574;52.040;5.692;2022-08-19T00:52:37;23.10;99.90
25718;DHT22;13574;52.040;5.692;2022-08-19T00:55:07;23.20;99.90
25718;DHT22;13574;52.040;5.692;2022-08-19T00:57:39;23.30;99.90
25718;DHT22;13574;52.040;5.692;2022-08-19T01:00:10;23.20;99.90
25718;DHT22;13574;52.040;5.692;2022-08-19T01:02:37;23.30;99.90
25718;DHT22;13574;52.040;5.692;2022-08-19T01:05:06;23.20;99.90
25718;DHT22;13574;52.040;5.692;2022-08-19T01:07:34;23.20;99.90
25718;DHT22;13574;52.040;5.692;2022-08-19T01:10:01;23.30;99.90
25718;DHT22;13574;52.040;5.692;2022-08-19T01:12:27;23.40;99.90
25718;DHT22;13574;52.040;5.692;2022-08-19T01:14:53;23.40;99.90
25718;DHT22;13574;52.040;5.692;2022-08-19T01:17:20;23.40;99.90
25718;DHT22;13574;52.040;5.692;2022-08-19T01:19:47;23.40;99.90
25718;DHT22;13574;52.040;5.692;2022-08-19T01:25:05;23.50;99.90
25718;DHT22;13574;52.040;5.692;2022-08-19T01:27:40;23.40;99.90
25718;DHT22;13574;52.040;5.692;2022-08-19T01:30:07;23.30;99.90
25718;DHT22;13574;52.040;5.692;2022-08-19T01:32:33;23.50;99.90
25718;DHT22;13574;52.040;5.692;2022-08-19T01:34:58;23.40;99.90
25718;DHT22;13574;52.040;5.692;2022-08-19T01:37:27;23.30;99.90
25718;DHT22;13574;52.040;5.692;2022-08-19T01:39:52;23.30;99.90
25718;DHT22;13574;52.040;5.692;2022-08-19T01:42:18;23.20;99.90
25718;DHT22;13574;52.040;5.692;2022-08-19T01:44:45;23.20;99.90
25718;DHT22;13574;52.040;5.692;2022-08-19T01:47:10;23.20;99.90
25718;DHT22;13574;52.040;5.692;2022-08-19T01:49:36;23.20;99.90
25718;DHT22;13574;52.040;5.692;2022-08-19T01:52:04;23.30;99.90
25718;DHT22;13574;52.040;5.692;2022-08-19T01:54:30;23.30;99.90
25718;DHT22;13574;52.040;5.692;2022-08-19T01:57:07;23.30;99.90
25718;DHT22;13574;52.040;5.692;2022-08-19T01:59:34;23.30;99.90
25718;DHT22;13574;52.040;5.692;2022-08-19T02:02:02;23.40;99.90
25718;DHT22;13574;52.040;5.692;2022-08-19T02:04:29;23.30;99.90
25718;DHT22;13574;52.040;5.692;2022-08-19T02:06:55;23.20;99.90
25718;DHT22;13574;52.040;5.692;2022-08-19T02:09:20;23.10;99.90
25718;DHT22;13574;52.040;5.692;2022-08-19T02:11:46;23.00;99.90
25718;DHT22;13574;52.040;5.692;2022-08-19T02:14:12;22.90;99.90
25718;DHT22;13574;52.040;5.692;2022-08-19T02:16:38;23.10;99.90
25718;DHT22;13574;52.040;5.692;2022-08-19T02:19:05;23.10;99.90
25718;DHT22;13574;52.040;5.692;2022-08-19T02:21:33;22.80;99.90
25718;DHT22;13574;52.040;5.692;2022-08-19T02:23:59;22.90;99.90
25718;DHT22;13574;52.040;5.692;2022-08-19T02:26:25;22.80;99.90
25718;DHT22;13574;52.040;5.692;2022-08-19T02:28:52;22.70;99.90
25718;DHT22;13574;52.040;5.692;2022-08-19T02:31:20;22.70;99.90
25718;DHT22;13574;52.040;5.692;2022-08-19T02:33:46;22.70;99.90
25718;DHT22;13574;52.040;5.692;2022-08-19T02:36:14;22.60;99.90
25718;DHT22;13574;52.040;5.692;2022-08-19T02:38:39;22.70;99.90
25718;DHT22;13574;52.040;5.692;2022-08-19T02:41:20;22.70;99.90
25718;DHT22;13574;52.040;5.692;2022-08-19T02:43:46;22.60;99.90
25718;DHT22;13574;52.040;5.692;2022-08-19T02:46:22;22.60;99.90
25718;DHT22;13574;52.040;5.692;2022-08-19T02:48:49;22.80;99.90
25718;DHT22;13574;52.040;5.692;2022-08-19T02:51:17;22.90;99.90
25718;DHT22;13574;52.040;5.692;2022-08-19T02:53:43;22.90;99.90
25718;DHT22;13574;52.040;5.692;2022-08-19T02:56:09;23.00;99.90
25718;DHT22;13574;52.040;5.692;2022-08-19T02:58:34;23.10;99.90
25718;DHT22;13574;52.040;5.692;2022-08-19T03:01:00;23.20;99.90
25718;DHT22;13574;52.040;5.692;2022-08-19T03:03:26;23.20;99.90
25718;DHT22;13574;52.040;5.692;2022-08-19T03:05:51;23.20;99.90
25718;DHT22;13574;52.040;5.692;2022-08-19T03:08:17;23.10;99.90
25718;DHT22;13574;52.040;5.692;2022-08-19T03:10:45;23.10;99.90
25718;DHT22;13574;52.040;5.692;2022-08-19T03:13:17;23.10;99.90
25718;DHT22;13574;52.040;5.692;2022-08-19T03:15:45;23.00;99.90
25718;DHT22;13574;52.040;5.692;2022-08-19T03:18:11;23.00;99.90
25718;DHT22;13574;52.040;5.692;2022-08-19T03:20:55;23.10;99.90
25718;DHT22;13574;52.040;5.692;2022-08-19T03:23:22;23.10;99.90
25718;DHT22;13574;52.040;5.692;2022-08-19T03:25:49;22.90;99.90
25718;DHT22;13574;52.040;5.692;2022-08-19T03:28:16;23.00;99.90
25718;DHT22;13574;52.040;5.692;2022-08-19T03:30:53;23.10;99.90
25718;DHT22;13574;52.040;5.692;2022-08-19T03:33:21;23.10;99.90
25718;DHT22;13574;52.040;5.692;2022-08-19T03:35:47;23.10;99.90
25718;DHT22;13574;52.040;5.692;2022-08-19T03:38:12;23.20;99.90
25718;DHT22;13574;52.040;5.692;2022-08-19T03:40:38;23.20;99.90
25718;DHT22;13574;52.040;5.692;2022-08-19T03:43:04;23.20;99.90
25718;DHT22;13574;52.040;5.692;2022-08-19T03:45:30;23.30;99.90
25718;DHT22;13574;52.040;5.692;2022-08-19T03:47:56;23.20;99.90
25718;DHT22;13574;52.040;5.692;2022-08-19T03:50:22;23.20;99.90
25718;DHT22;13574;52.040;5.692;2022-08-19T03:52:49;23.30;99.90
25718;DHT22;13574;52.040;5.692;2022-08-19T03:55:16;23.20;99.90
25718;DHT22;13574;52.040;5.692;2022-08-19T03:57:42;23.20;99.90
25718;DHT22;13574;52.040;5.692;2022-08-19T04:00:08;23.20;99.90
25718;DHT22;13574;52.040;5.692;2022-08-19T04:02:34;23.10;99.90
25718;DHT22;13574;52.040;5.692;2022-08-19T04:05:00;23.10;99.90
25718;DHT22;13574;52.040;5.692;2022-08-19T04:07:26;23.10;99.90
25718;DHT22;13574;52.040;5.692;2022-08-19T04:09:51;23.10;99.90
25718;DHT22;13574;52.040;5.692;2022-08-19T04:12:19;23.00;99.90
25718;DHT22;13574;52.040;5.692;2022-08-19T04:14:45;23.10;99.90
25718;DHT22;13574;52.040;5.692;2022-08-19T04:17:12;23.10;99.90
25718;DHT22;13574;52.040;5.692;2022-08-19T04:19:39;23.00;99.90
25718;DHT22;13574;52.040;5.692;2022-08-19T04:22:05;22.90;99.90
25718;DHT22;13574;52.040;5.692;2022-08-19T04:24:33;23.00;99.90
25718;DHT22;13574;52.040;5.692;2022-08-19T04:27:00;22.90;99.90
25718;DHT22;13574;52.040;5.692;2022-08-19T04:29:26;23.00;99.90
25718;DHT22;13574;52.040;5.692;2022-08-19T04:31:55;23.00;99.90
25718;DHT22;13574;52.040;5.692;2022-08-19T04:34:24;22.90;99.90
25718;DHT22;13574;52.040;5.692;2022-08-19T04:36:51;22.80;99.90
25718;DHT22;13574;52.040;5.692;2022-08-19T04:39:21;22.90;99.90
25718;DHT22;13574;52.040;5.692;2022-08-19T04:41:47;22.90;99.90
25718;DHT22;13574;52.040;5.692;2022-08-19T04:44:32;23.00;99.90
25718;DHT22;13574;52.040;5.692;2022-08-19T04:46:58;22.90;99.90
25718;DHT22;13574;52.040;5.692;2022-08-19T04:49:24;23.00;99.90
25718;DHT22;13574;52.040;5.692;2022-08-19T04:51:52;22.90;99.90
25718;DHT22;13574;52.040;5.692;2022-08-19T04:54:19;23.00;99.90
25718;DHT22;13574;52.040;5.692;2022-08-19T04:56:51;22.90;99.90
25718;DHT22;13574;52.040;5.692;2022-08-19T04:59:17;22.90;99.90
25718;DHT22;13574;52.040;5.692;2022-08-19T05:01:46;22.80;99.90
25718;DHT22;13574;52.040;5.692;2022-08-19T05:04:15;22.70;99.90
25718;DHT22;13574;52.040;5.692;2022-08-19T05:06:42;22.70;99.90
25718;DHT22;13574;52.040;5.692;2022-08-19T05:09:08;22.60;99.90
25718;DHT22;13574;52.040;5.692;2022-08-19T05:11:37;22.70;99.90
25718;DHT22;13574;52.040;5.692;2022-08-19T05:14:08;22.70;99.90
25718;DHT22;13574;52.040;5.692;2022-08-19T05:16:35;22.70;99.90
25718;DHT22;13574;52.040;5.692;2022-08-19T05:19:01;22.70;99.90
25718;DHT22;13574;52.040;5.692;2022-08-19T05:21:45;22.70;99.90
25718;DHT22;13574;52.040;5.692;2022-08-19T05:24:30;22.80;99.90
25718;DHT22;13574;52.040;5.692;2022-08-19T05:26:57;22.70;99.90
25718;DHT22;13574;52.040;5.692;2022-08-19T05:29:25;22.80;99.90
25718;DHT22;13574;52.040;5.692;2022-08-19T05:31:52;22.90;99.90
25718;DHT22;13574;52.040;5.692;2022-08-19T05:34:19;22.90;99.90
25718;DHT22;13574;52.040;5.692;2022-08-19T05:36:48;23.00;99.90
25718;DHT22;13574;52.040;5.692;2022-08-19T05:39:19;23.10;99.90
25718;DHT22;13574;52.040;5.692;2022-08-19T05:41:57;23.20;99.90
25718;DHT22;13574;52.040;5.692;2022-08-19T05:44:25;23.30;99.90
25718;DHT22;13574;52.040;5.692;2022-08-19T05:46:52;23.40;99.90
25718;DHT22;13574;52.040;5.692;2022-08-19T05:49:19;23.60;99.90
25718;DHT22;13574;52.040;5.692;2022-08-19T05:51:45;23.70;99.90
25718;DHT22;13574;52.040;5.692;2022-08-19T05:54:11;23.90;99.90
25718;DHT22;13574;52.040;5.692;2022-08-19T05:56:39;23.90;99.90
25718;DHT22;13574;52.040;5.692;2022-08-19T05:59:06;24.10;99.90
25718;DHT22;13574;52.040;5.692;2022-08-19T06:01:36;24.30;99.90
25718;DHT22;13574;52.040;5.692;2022-08-19T06:04:03;24.40;99.90
25718;DHT22;13574;52.040;5.692;2022-08-19T06:06:28;24.40;99.90
25718;DHT22;13574;52.040;5.692;2022-08-19T06:08:54;24.60;99.90
25718;DHT22;13574;52.040;5.692;2022-08-19T06:11:33;24.60;99.90
25718;DHT22;13574;52.040;5.692;2022-08-19T06:14:03;24.80;99.90
25718;DHT22;13574;52.040;5.692;2022-08-19T06:16:32;25.00;99.90
25718;DHT22;13574;52.040;5.692;2022-08-19T06:19:10;25.10;99.90
25718;DHT22;13574;52.040;5.692;2022-08-19T06:21:38;25.40;99.90
25718;DHT22;13574;52.040;5.692;2022-08-19T06:24:06;25.50;99.90
25718;DHT22;13574;52.040;5.692;2022-08-19T06:26:38;25.70;99.90
25718;DHT22;13574;52.040;5.692;2022-08-19T06:29:05;25.90;99.90
25718;DHT22;13574;52.040;5.692;2022-08-19T06:31:33;26.10;99.90
25718;DHT22;13574;52.040;5.692;2022-08-19T06:34:00;26.30;99.90
25718;DHT22;13574;52.040;5.692;2022-08-19T06:36:35;26.40;99.90
25718;DHT22;13574;52.040;5.692;2022-08-19T06:39:07;26.60;99.90
25718;DHT22;13574;52.040;5.692;2022-08-19T06:41:38;26.80;99.90
25718;DHT22;13574;52.040;5.692;2022-08-19T06:44:05;26.70;99.90
25718;DHT22;13574;52.040;5.692;2022-08-19T06:46:31;26.70;99.90
25718;DHT22;13574;52.040;5.692;2022-08-19T06:48:59;26.70;99.90
25718;DHT22;13574;52.040;5.692;2022-08-19T06:51:25;26.60;99.90
25718;DHT22;13574;52.040;5.692;2022-08-19T06:53:53;26.50;99.90
25718;DHT22;13574;52.040;5.692;2022-08-19T06:56:25;26.50;99.90
25718;DHT22;13574;52.040;5.692;2022-08-19T06:58:56;26.40;99.90
25718;DHT22;13574;52.040;5.692;2022-08-19T07:01:22;26.50;99.90
25718;DHT22;13574;52.040;5.692;2022-08-19T07:03:48;26.40;99.90
25718;DHT22;13574;52.040;5.692;2022-08-19T07:06:16;26.30;99.90
25718;DHT22;13574;52.040;5.692;2022-08-19T07:08:47;26.30;99.90
25718;DHT22;13574;52.040;5.692;2022-08-19T07:11:25;26.20;99.90
25718;DHT22;13574;52.040;5.692;2022-08-19T07:13:56;26.10;99.90
25718;DHT22;13574;52.040;5.692;2022-08-19T07:16:25;26.20;99.90
25718;DHT22;13574;52.040;5.692;2022-08-19T07:18:58;26.90;99.90
25718;DHT22;13574;52.040;5.692;2022-08-19T07:21:50;27.40;99.90
25718;DHT22;13574;52.040;5.692;2022-08-19T07:24:24;27.50;99.40
25718;DHT22;13574;52.040;5.692;2022-08-19T07:26:51;27.50;99.10
25718;DHT22;13574;52.040;5.692;2022-08-19T07:29:21;27.40;99.20
25718;DHT22;13574;52.040;5.692;2022-08-19T07:31:49;27.10;99.50
25718;DHT22;13574;52.040;5.692;2022-08-19T07:34:16;26.90;99.80
25718;DHT22;13574;52.040;5.692;2022-08-19T07:36:43;26.80;99.90
25718;DHT22;13574;52.040;5.692;2022-08-19T07:39:29;26.80;99.90
25718;DHT22;13574;52.040;5.692;2022-08-19T07:41:56;26.80;99.90
25718;DHT22;13574;52.040;5.692;2022-08-19T07:44:23;26.70;99.90
25718;DHT22;13574;52.040;5.692;2022-08-19T07:46:52;27.00;99.90
25718;DHT22;13574;52.040;5.692;2022-08-19T07:49:22;27.90;99.30
25718;DHT22;13574;52.040;5.692;2022-08-19T07:52:02;28.20;98.20
25718;DHT22;13574;52.040;5.692;2022-08-19T07:54:32;28.30;97.60
25718;DHT22;13574;52.040;5.692;2022-08-19T07:57:00;28.30;97.50
25718;DHT22;13574;52.040;5.692;2022-08-19T07:59:26;29.20;97.20
25718;DHT22;13574;52.040;5.692;2022-08-19T08:01:52;30.70;95.20
25718;DHT22;13574;52.040;5.692;2022-08-19T08:04:18;32.50;92.60
25718;DHT22;13574;52.040;5.692;2022-08-19T08:07:03;33.40;90.00
25718;DHT22;13574;52.040;5.692;2022-08-19T08:09:47;34.40;88.00
25718;DHT22;13574;52.040;5.692;2022-08-19T08:12:23;36.20;82.30
25718;DHT22;13574;52.040;5.692;2022-08-19T08:14:53;38.00;77.30
25718;DHT22;13574;52.040;5.692;2022-08-19T08:17:21;39.40;73.70
25718;DHT22;13574;52.040;5.692;2022-08-19T08:19:48;39.70;71.70
25718;DHT22;13574;52.040;5.692;2022-08-19T08:22:17;40.50;69.80
25718;DHT22;13574;52.040;5.692;2022-08-19T08:25:09;41.30;67.70
25718;DHT22;13574;52.040;5.692;2022-08-19T08:27:37;42.10;66.40
25718;DHT22;13574;52.040;5.692;2022-08-19T08:30:06;42.60;64.60
25718;DHT22;13574;52.040;5.692;2022-08-19T08:32:35;42.90;63.50
25718;DHT22;13574;52.040;5.692;2022-08-19T08:35:02;43.20;63.10
25718;DHT22;13574;52.040;5.692;2022-08-19T08:37:28;44.00;61.50
25718;DHT22;13574;52.040;5.692;2022-08-19T08:39:53;44.70;60.00
25718;DHT22;13574;52.040;5.692;2022-08-19T08:42:30;45.10;59.20
25718;DHT22;13574;52.040;5.692;2022-08-19T08:45:03;44.60;59.30
25718;DHT22;13574;52.040;5.692;2022-08-19T08:47:34;44.10;59.30
25718;DHT22;13574;52.040;5.692;2022-08-19T08:50:18;44.70;58.90
25718;DHT22;13574;52.040;5.692;2022-08-19T08:52:51;45.50;58.30
25718;DHT22;13574;52.040;5.692;2022-08-19T08:55:24;45.80;57.60
25718;DHT22;13574;52.040;5.692;2022-08-19T08:57:53;45.90;56.80
25718;DHT22;13574;52.040;5.692;2022-08-19T09:00:26;45.10;57.90
25718;DHT22;13574;52.040;5.692;2022-08-19T09:02:54;44.80;57.80
25718;DHT22;13574;52.040;5.692;2022-08-19T09:05:20;44.10;58.70
25718;DHT22;13574;52.040;5.692;2022-08-19T09:10:28;42.10;60.20
25718;DHT22;13574;52.040;5.692;2022-08-19T09:15:49;40.00;63.50
25718;DHT22;13574;52.040;5.692;2022-08-19T09:18:16;38.90;65.30
25718;DHT22;13574;52.040;5.692;2022-08-19T09:20:42;37.90;67.30
25718;DHT22;13574;52.040;5.692;2022-08-19T09:23:08;37.00;68.10
25718;DHT22;13574;52.040;5.692;2022-08-19T09:25:34;36.30;69.70
25718;DHT22;13574;52.040;5.692;2022-08-19T09:28:01;35.80;70.80
25718;DHT22;13574;52.040;5.692;2022-08-19T09:30:34;35.10;71.60
25718;DHT22;13574;52.040;5.692;2022-08-19T09:33:00;34.70;73.00
25718;DHT22;13574;52.040;5.692;2022-08-19T09:35:28;34.10;74.50
25718;DHT22;13574;52.040;5.692;2022-08-19T09:37:56;33.40;75.90
25718;DHT22;13574;52.040;5.692;2022-08-19T09:40:22;33.20;77.20
25718;DHT22;13574;52.040;5.692;2022-08-19T09:42:48;33.00;78.50
25718;DHT22;13574;52.040;5.692;2022-08-19T09:45:16;32.80;78.50
25718;DHT22;13574;52.040;5.692;2022-08-19T09:47:42;32.60;78.30
25718;DHT22;13574;52.040;5.692;2022-08-19T09:50:11;32.30;79.20
25718;DHT22;13574;52.040;5.692;2022-08-19T09:52:37;32.20;79.50
25718;DHT22;13574;52.040;5.692;2022-08-19T09:55:07;32.20;80.20
25718;DHT22;13574;52.040;5.692;2022-08-19T09:57:33;32.00;81.40
25718;DHT22;13574;52.040;5.692;2022-08-19T09:59:59;32.10;80.30
25718;DHT22;13574;52.040;5.692;2022-08-19T10:02:25;32.20;81.10
25718;DHT22;13574;52.040;5.692;2022-08-19T10:04:51;32.10;80.50
25718;DHT22;13574;52.040;5.692;2022-08-19T10:07:36;32.00;80.70
25718;DHT22;13574;52.040;5.692;2022-08-19T10:10:06;31.90;80.30
25718;DHT22;13574;52.040;5.692;2022-08-19T10:12:33;31.90;81.30
25718;DHT22;13574;52.040;5.692;2022-08-19T10:15:02;31.60;81.40
25718;DHT22;13574;52.040;5.692;2022-08-19T10:17:28;31.60;81.70
25718;DHT22;13574;52.040;5.692;2022-08-19T10:19:54;31.70;82.10
25718;DHT22;13574;52.040;5.692;2022-08-19T10:22:20;31.70;82.10
25718;DHT22;13574;52.040;5.692;2022-08-19T10:24:46;31.80;82.10
25718;DHT22;13574;52.040;5.692;2022-08-19T10:27:12;31.60;82.30
25718;DHT22;13574;52.040;5.692;2022-08-19T10:29:40;31.30;82.80
25718;DHT22;13574;52.040;5.692;2022-08-19T10:32:08;31.30;83.20
25718;DHT22;13574;52.040;5.692;2022-08-19T10:34:36;31.50;82.90
25718;DHT22;13574;52.040;5.692;2022-08-19T10:37:03;31.60;82.90
25718;DHT22;13574;52.040;5.692;2022-08-19T10:39:33;31.60;83.10
25718;DHT22;13574;52.040;5.692;2022-08-19T10:42:03;31.60;83.80
25718;DHT22;13574;52.040;5.692;2022-08-19T10:44:29;31.10;83.20
25718;DHT22;13574;52.040;5.692;2022-08-19T10:46:55;31.10;83.40
25718;DHT22;13574;52.040;5.692;2022-08-19T10:49:20;31.10;83.90
25718;DHT22;13574;52.040;5.692;2022-08-19T10:51:46;31.30;83.90
25718;DHT22;13574;52.040;5.692;2022-08-19T10:54:32;31.20;82.60
25718;DHT22;13574;52.040;5.692;2022-08-19T10:57:16;31.30;83.20
25718;DHT22;13574;52.040;5.692;2022-08-19T10:59:42;31.30;83.40
25718;DHT22;13574;52.040;5.692;2022-08-19T11:02:10;31.00;84.70
25718;DHT22;13574;52.040;5.692;2022-08-19T11:04:37;31.10;83.90
25718;DHT22;13574;52.040;5.692;2022-08-19T11:07:04;31.10;84.20
25718;DHT22;13574;52.040;5.692;2022-08-19T11:09:30;31.00;84.60
25718;DHT22;13574;52.040;5.692;2022-08-19T11:11:56;30.80;84.00
25718;DHT22;13574;52.040;5.692;2022-08-19T11:14:23;31.00;84.60
25718;DHT22;13574;52.040;5.692;2022-08-19T11:16:52;31.20;84.10
25718;DHT22;13574;52.040;5.692;2022-08-19T11:19:21;31.10;84.20
25718;DHT22;13574;52.040;5.692;2022-08-19T11:21:49;31.00;84.30
25718;DHT22;13574;52.040;5.692;2022-08-19T11:24:18;30.90;84.60
25718;DHT22;13574;52.040;5.692;2022-08-19T11:26:46;30.70;84.70
25718;DHT22;13574;52.040;5.692;2022-08-19T11:29:15;29.80;86.70
25718;DHT22;13574;52.040;5.692;2022-08-19T11:31:44;29.50;86.80
25718;DHT22;13574;52.040;5.692;2022-08-19T11:34:14;29.80;87.40
25718;DHT22;13574;52.040;5.692;2022-08-19T11:36:43;30.00;86.50
25718;DHT22;13574;52.040;5.692;2022-08-19T11:39:11;30.10;86.80
25718;DHT22;13574;52.040;5.692;2022-08-19T11:41:38;30.30;87.50
25718;DHT22;13574;52.040;5.692;2022-08-19T11:44:04;30.40;87.60
25718;DHT22;13574;52.040;5.692;2022-08-19T11:46:31;30.50;87.30
25718;DHT22;13574;52.040;5.692;2022-08-19T11:49:01;30.70;86.20
25718;DHT22;13574;52.040;5.692;2022-08-19T11:51:29;30.80;85.50
25718;DHT22;13574;52.040;5.692;2022-08-19T11:53:56;30.80;86.20
25718;DHT22;13574;52.040;5.692;2022-08-19T11:56:23;30.80;86.00
25718;DHT22;13574;52.040;5.692;2022-08-19T11:58:50;30.90;85.70
25718;DHT22;13574;52.040;5.692;2022-08-19T12:01:19;30.90;86.60
25718;DHT22;13574;52.040;5.692;2022-08-19T12:03:47;31.00;87.10
25718;DHT22;13574;52.040;5.692;2022-08-19T12:06:19;31.00;86.80
25718;DHT22;13574;52.040;5.692;2022-08-19T12:08:45;31.00;87.10
25718;DHT22;13574;52.040;5.692;2022-08-19T12:11:12;31.20;86.90
25718;DHT22;13574;52.040;5.692;2022-08-19T12:13:39;31.40;86.20
25718;DHT22;13574;52.040;5.692;2022-08-19T12:16:10;31.40;86.90
25718;DHT22;13574;52.040;5.692;2022-08-19T12:18:40;31.30;86.50
25718;DHT22;13574;52.040;5.692;2022-08-19T12:21:09;31.20;86.40
25718;DHT22;13574;52.040;5.692;2022-08-19T12:23:36;31.00;86.60
25718;DHT22;13574;52.040;5.692;2022-08-19T12:26:03;30.80;87.40
25718;DHT22;13574;52.040;5.692;2022-08-19T12:28:29;30.80;87.20
25718;DHT22;13574;52.040;5.692;2022-08-19T12:30:56;30.70;87.30
25718;DHT22;13574;52.040;5.692;2022-08-19T12:33:22;30.70;87.40
25718;DHT22;13574;52.040;5.692;2022-08-19T12:35:51;30.80;88.50
25718;DHT22;13574;52.040;5.692;2022-08-19T12:38:17;31.00;87.20
25718;DHT22;13574;52.040;5.692;2022-08-19T12:40:47;31.10;87.60
25718;DHT22;13574;52.040;5.692;2022-08-19T12:43:15;31.20;86.60
25718;DHT22;13574;52.040;5.692;2022-08-19T12:45:42;31.00;87.00
25718;DHT22;13574;52.040;5.692;2022-08-19T12:48:08;31.10;87.60
25718;DHT22;13574;52.040;5.692;2022-08-19T12:50:44;31.00;87.20
25718;DHT22;13574;52.040;5.692;2022-08-19T12:53:13;31.00;87.20
25718;DHT22;13574;52.040;5.692;2022-08-19T12:55:40;31.20;87.40
25718;DHT22;13574;52.040;5.692;2022-08-19T12:58:09;31.20;88.00
25718;DHT22;13574;52.040;5.692;2022-08-19T13:00:44;31.20;87.80
25718;DHT22;13574;52.040;5.692;2022-08-19T13:03:16;31.10;87.20
25718;DHT22;13574;52.040;5.692;2022-08-19T13:05:55;31.10;87.20
25718;DHT22;13574;52.040;5.692;2022-08-19T13:08:22;31.00;86.70
25718;DHT22;13574;52.040;5.692;2022-08-19T13:11:08;30.90;87.10
25718;DHT22;13574;52.040;5.692;2022-08-19T13:13:53;30.80;87.30
25718;DHT22;13574;52.040;5.692;2022-08-19T13:16:33;30.50;88.10
25718;DHT22;13574;52.040;5.692;2022-08-19T13:19:02;30.20;89.90
25718;DHT22;13574;52.040;5.692;2022-08-19T13:21:37;30.50;89.50
25718;DHT22;13574;52.040;5.692;2022-08-19T13:24:06;30.50;89.60
25718;DHT22;13574;52.040;5.692;2022-08-19T13:26:34;30.60;89.00
25718;DHT22;13574;52.040;5.692;2022-08-19T13:28:59;30.70;88.50
25718;DHT22;13574;52.040;5.692;2022-08-19T13:31:46;30.60;89.20
25718;DHT22;13574;52.040;5.692;2022-08-19T13:34:33;30.60;89.70
25718;DHT22;13574;52.040;5.692;2022-08-19T13:37:00;30.30;89.70
25718;DHT22;13574;52.040;5.692;2022-08-19T13:39:48;30.10;90.20
25718;DHT22;13574;52.040;5.692;2022-08-19T13:42:14;29.90;91.10
25718;DHT22;13574;52.040;5.692;2022-08-19T13:44:40;29.80;91.50
25718;DHT22;13574;52.040;5.692;2022-08-19T13:47:06;29.70;91.60
25718;DHT22;13574;52.040;5.692;2022-08-19T13:49:37;29.70;92.00
25718;DHT22;13574;52.040;5.692;2022-08-19T13:52:05;29.60;92.40
25718;DHT22;13574;52.040;5.692;2022-08-19T13:54:33;29.40;93.30
25718;DHT22;13574;52.040;5.692;2022-08-19T13:56:59;29.40;93.20
25718;DHT22;13574;52.040;5.692;2022-08-19T13:59:25;29.30;93.10
25718;DHT22;13574;52.040;5.692;2022-08-19T14:01:51;29.40;93.30
25718;DHT22;13574;52.040;5.692;2022-08-19T14:04:16;29.30;93.40
25718;DHT22;13574;52.040;5.692;2022-08-19T14:06:42;29.30;93.60
25718;DHT22;13574;52.040;5.692;2022-08-19T14:09:08;29.40;93.50
25718;DHT22;13574;52.040;5.692;2022-08-19T14:11:43;29.60;93.40
25718;DHT22;13574;52.040;5.692;2022-08-19T14:14:15;29.50;93.40
25718;DHT22;13574;52.040;5.692;2022-08-19T14:16:40;29.60;93.30
25718;DHT22;13574;52.040;5.692;2022-08-19T14:19:06;29.70;93.20
25718;DHT22;13574;52.040;5.692;2022-08-19T14:21:33;29.80;93.10
25718;DHT22;13574;52.040;5.692;2022-08-19T14:23:59;29.80;93.10
25718;DHT22;13574;52.040;5.692;2022-08-19T14:26:26;29.80;93.30
25718;DHT22;13574;52.040;5.692;2022-08-19T14:28:52;29.60;93.00
25718;DHT22;13574;52.040;5.692;2022-08-19T14:31:19;29.60;93.30
25718;DHT22;13574;52.040;5.692;2022-08-19T14:33:46;29.50;93.30
25718;DHT22;13574;52.040;5.692;2022-08-19T14:36:12;29.40;93.40
25718;DHT22;13574;52.040;5.692;2022-08-19T14:38:38;29.30;93.50
25718;DHT22;13574;52.040;5.692;2022-08-19T14:43:36;29.30;93.70
25718;DHT22;13574;52.040;5.692;2022-08-19T14:46:04;29.00;94.20
25718;DHT22;13574;52.040;5.692;2022-08-19T14:48:30;28.80;94.80
25718;DHT22;13574;52.040;5.692;2022-08-19T14:50:56;28.70;95.00
25718;DHT22;13574;52.040;5.692;2022-08-19T14:53:22;28.40;95.80
25718;DHT22;13574;52.040;5.692;2022-08-19T14:55:59;28.30;96.10
25718;DHT22;13574;52.040;5.692;2022-08-19T15:01:49;28.10;97.40
25718;DHT22;13574;52.040;5.692;2022-08-19T15:04:24;27.90;98.00
25718;DHT22;13574;52.040;5.692;2022-08-19T15:06:55;27.80;99.10
25718;DHT22;13574;52.040;5.692;2022-08-19T15:09:43;27.80;99.20
25718;DHT22;13574;52.040;5.692;2022-08-19T15:12:12;27.70;99.40
25718;DHT22;13574;52.040;5.692;2022-08-19T15:14:40;27.70;99.50
25718;DHT22;13574;52.040;5.692;2022-08-19T15:17:08;27.60;99.90
25718;DHT22;13574;52.040;5.692;2022-08-19T15:19:33;27.60;99.90
25718;DHT22;13574;52.040;5.692;2022-08-19T15:22:01;27.60;99.90
25718;DHT22;13574;52.040;5.692;2022-08-19T15:24:27;27.70;99.90
25718;DHT22;13574;52.040;5.692;2022-08-19T15:26:55;27.70;99.90
25718;DHT22;13574;52.040;5.692;2022-08-19T15:29:24;27.80;99.90
25718;DHT22;13574;52.040;5.692;2022-08-19T15:31:51;27.90;99.90
25718;DHT22;13574;52.040;5.692;2022-08-19T15:34:20;27.90;99.90
25718;DHT22;13574;52.040;5.692;2022-08-19T15:36:46;28.00;99.90
25718;DHT22;13574;52.040;5.692;2022-08-19T15:39:14;28.10;99.90
25718;DHT22;13574;52.040;5.692;2022-08-19T15:41:42;28.10;99.90
25718;DHT22;13574;52.040;5.692;2022-08-19T15:44:12;28.00;99.90
25718;DHT22;13574;52.040;5.692;2022-08-19T15:46:40;28.10;99.90
25718;DHT22;13574;52.040;5.692;2022-08-19T15:49:07;28.20;99.90
25718;DHT22;13574;52.040;5.692;2022-08-19T15:51:34;28.00;99.90
25718;DHT22;13574;52.040;5.692;2022-08-19T15:54:05;28.20;99.90